Time;durP1;ratioP1;P1;durP2;ratioP2;P2;SDS_P1;SDS_P2;PMS_P1;PMS_P2;Temp;Humidity;BMP_temperature;BMP_pressure;BME280_temperature;BME280_humidity;BME280_pressure;Samples;Min_cycle;Max_cycle;Signal;HPM_P1;HPM_P2
2022/07/04 00:01:49;;;;;;;;;;;;;;;21.08;28.29;98085.38;4918705;29;839;-80
2022/07/04 00:04:14;;;;;;;;;;;;;;;21.16;28.46;98092.47;4918516;29;929;-80
2022/07/04 00:06:39;;;;;;;;;;;;;;;21.39;27.68;98090.75;4871596;29;1126;-80
2022/07/04 00:09:05;;;;;;;;;;;;;;;21.15;28.06;98082.41;4881102;29;1911;-80
2022/07/04 00:11:30;;;;;;;;;;;;;;;21.16;28.35;98081.16;4881299;29;955;-80
2022/07/04 00:13:56;;;;;;;;;;;;;;;21.36;28.05;98083.16;4861872;29;904;-80
2022/07/04 00:19:56;;;;;;;;;;;;;;;21.45;27.90;98074.81;4874202;29;997;-80
2022/07/04 00:22:22;;;;;;;;;;;;;;;21.47;27.76;98069.53;4918485;29;902;-80
2022/07/04 00:24:47;;;;;;;;;;;;;;;21.25;27.85;98075.69;4922267;29;946;-80
2022/07/04 00:27:12;;;;;;;;;;;;;;;21.30;28.25;98068.75;4937517;29;978;-80
2022/07/04 00:29:38;;;;;;;;;;;;;;;21.48;27.61;98080.41;4937263;29;1969;-80
2022/07/04 00:32:03;;;;;;;;;;;;;;;21.26;28.03;98068.00;4880896;29;1040;-80
2022/07/04 00:34:29;;;;;;;;;;;;;;;21.16;28.19;98074.69;4884090;29;1110;-80
2022/07/04 00:36:54;;;;;;;;;;;;;;;21.12;28.48;98071.94;4899530;29;1126;-80
2022/07/04 00:39:20;;;;;;;;;;;;;;;21.18;28.19;98070.19;4883700;29;959;-80
2022/07/04 00:41:45;;;;;;;;;;;;;;;21.24;27.98;98070.44;4899260;29;961;-80
2022/07/04 00:44:11;;;;;;;;;;;;;;;21.22;28.04;98073.72;4884062;29;974;-80
2022/07/04 00:46:37;;;;;;;;;;;;;;;21.21;28.00;98083.47;4899284;29;937;-80
2022/07/04 00:49:05;;;;;;;;;;;;;;;21.26;28.15;98077.28;4899325;29;1910;-80
2022/07/04 00:51:31;;;;;;;;;;;;;;;21.30;27.91;98072.38;4899267;29;1122;-80
2022/07/04 00:53:56;;;;;;;;;;;;;;;21.54;27.65;98066.50;4899282;29;942;-80
2022/07/04 00:56:22;;;;;;;;;;;;;;;21.47;27.68;98070.31;4880844;29;972;-80
2022/07/04 00:58:48;;;;;;;;;;;;;;;21.22;27.93;98067.28;4882147;29;829;-80
2022/07/04 01:01:13;;;;;;;;;;;;;;;21.29;28.08;98062.22;4898959;29;818;-80
2022/07/04 01:03:39;;;;;;;;;;;;;;;21.21;28.32;98060.81;4913606;29;886;-80
2022/07/04 01:06:04;;;;;;;;;;;;;;;21.24;28.06;98071.28;4917962;29;951;-80
2022/07/04 01:08:30;;;;;;;;;;;;;;;21.36;28.20;98071.84;4899106;29;1910;-80
2022/07/04 01:10:55;;;;;;;;;;;;;;;21.38;27.77;98070.13;4899001;29;852;-80
2022/07/04 01:13:21;;;;;;;;;;;;;;;21.31;27.99;98068.28;4898930;29;927;-80
2022/07/04 01:15:46;;;;;;;;;;;;;;;21.30;27.88;98074.41;4898997;29;849;-80
2022/07/04 01:18:12;;;;;;;;;;;;;;;21.23;28.09;98069.66;4861569;29;790;-80
2022/07/04 01:20:37;;;;;;;;;;;;;;;21.26;28.08;98068.00;4877059;29;871;-80
2022/07/04 01:23:03;;;;;;;;;;;;;;;21.45;28.04;98060.66;4861614;29;784;-80
2022/07/04 01:25:28;;;;;;;;;;;;;;;21.18;28.22;98067.34;4880379;29;890;-80
2022/07/04 01:27:54;;;;;;;;;;;;;;;21.19;28.27;98068.97;4883456;29;1993;-80
2022/07/04 01:30:19;;;;;;;;;;;;;;;21.32;27.97;98067.03;4883783;29;1007;-80
2022/07/04 01:32:45;;;;;;;;;;;;;;;21.46;27.83;98059.44;4897708;29;814;-80
2022/07/04 01:35:12;;;;;;;;;;;;;;;21.42;27.75;98075.72;4902508;29;1220;-80
2022/07/04 01:37:38;;;;;;;;;;;;;;;21.10;28.16;98068.78;4902393;29;871;-80
2022/07/04 01:40:03;;;;;;;;;;;;;;;21.21;28.32;98071.34;4902571;29;926;-80
2022/07/04 01:42:29;;;;;;;;;;;;;;;21.46;27.75;98077.22;4902365;29;860;-80
2022/07/04 01:44:54;;;;;;;;;;;;;;;21.68;27.32;98066.16;4905546;29;985;-80
2022/07/04 01:47:20;;;;;;;;;;;;;;;21.21;28.01;98069.31;4939980;29;1075;-81
2022/07/04 01:49:45;;;;;;;;;;;;;;;21.34;27.82;98077.91;4940237;29;1910;-80
2022/07/04 01:52:10;;;;;;;;;;;;;;;21.28;27.90;98071.94;4940039;29;854;-80
2022/07/04 01:54:36;;;;;;;;;;;;;;;21.30;27.87;98069.53;4919445;29;995;-80
2022/07/04 01:57:01;;;;;;;;;;;;;;;21.23;27.82;98069.66;4934890;29;968;-80
2022/07/04 02:02:11;;;;;;;;;;;;;;;21.12;28.40;98077.59;4883206;29;1257;-80
2022/07/04 02:04:36;;;;;;;;;;;;;;;21.12;28.34;98079.63;4864758;29;1022;-80
2022/07/04 02:07:02;;;;;;;;;;;;;;;21.19;28.13;98079.47;4809848;29;1252;-80
2022/07/04 02:09:28;;;;;;;;;;;;;;;21.35;27.87;98081.53;4845997;29;1903;-80
2022/07/04 02:14:40;;;;;;;;;;;;;;;21.28;28.14;98076.81;4883216;29;1123;-80
2022/07/04 02:17:05;;;;;;;;;;;;;;;21.25;27.78;98081.34;4863829;29;946;-80
2022/07/04 02:19:31;;;;;;;;;;;;;;;21.22;28.23;98082.22;4882768;29;1234;-80
2022/07/04 02:21:56;;;;;;;;;;;;;;;21.27;27.98;98081.69;4882665;29;900;-80
2022/07/04 02:24:22;;;;;;;;;;;;;;;21.24;27.98;98084.59;4882759;29;868;-80
2022/07/04 02:26:47;;;;;;;;;;;;;;;21.38;27.79;98080.66;4919563;29;959;-80
2022/07/04 02:29:13;;;;;;;;;;;;;;;21.46;27.90;98087.75;4869852;29;1980;-80
2022/07/04 02:31:38;;;;;;;;;;;;;;;21.37;27.60;98084.75;4901748;29;970;-80
2022/07/04 02:34:03;;;;;;;;;;;;;;;21.32;27.97;98101.00;4852847;29;1243;-80
2022/07/04 02:36:29;;;;;;;;;;;;;;;21.26;27.81;98097.09;4832355;29;863;-80
2022/07/04 02:38:54;;;;;;;;;;;;;;;21.41;27.65;98085.47;4858434;29;898;-80
2022/07/04 02:44:55;;;;;;;;;;;;;;;21.45;27.85;98094.63;4874933;29;825;-80
2022/07/04 02:47:21;;;;;;;;;;;;;;;21.38;27.68;98103.31;4869121;29;928;-80
2022/07/04 02:49:46;;;;;;;;;;;;;;;21.46;27.54;98093.41;4820894;29;1903;-80
2022/07/04 02:52:12;;;;;;;;;;;;;;;21.59;27.39;98099.94;4809191;29;1150;-80
2022/07/04 02:58:12;;;;;;;;;;;;;;;21.11;28.15;98095.81;4845491;29;1142;-80
2022/07/04 03:00:38;;;;;;;;;;;;;;;21.17;28.16;98099.72;4847998;29;1041;-80
2022/07/04 03:03:03;;;;;;;;;;;;;;;21.29;27.63;98090.53;4863559;29;1118;-80
2022/07/04 03:05:31;;;;;;;;;;;;;;;21.44;27.64;98110.03;4848219;29;792;-80
2022/07/04 03:07:57;;;;;;;;;;;;;;;21.33;27.66;98102.59;4863498;29;1982;-80
2022/07/04 03:10:22;;;;;;;;;;;;;;;21.25;27.79;98098.31;4863933;29;936;-80
2022/07/04 03:12:48;;;;;;;;;;;;;;;21.48;27.40;98114.38;4901876;29;827;-80
2022/07/04 03:15:13;;;;;;;;;;;;;;;21.32;27.83;98112.31;4919797;29;859;-80
2022/07/04 03:17:39;;;;;;;;;;;;;;;21.28;28.07;98114.41;4881798;29;876;-80
2022/07/04 03:20:04;;;;;;;;;;;;;;;21.30;27.71;98114.03;4863148;29;1004;-80
2022/07/04 03:22:30;;;;;;;;;;;;;;;21.43;27.65;98102.78;4863119;29;965;-80
2022/07/04 03:24:55;;;;;;;;;;;;;;;21.22;27.85;98106.88;4894503;29;819;-80
2022/07/04 03:27:21;;;;;;;;;;;;;;;21.29;27.84;98107.50;4919600;29;843;-80
2022/07/04 03:29:46;;;;;;;;;;;;;;;21.36;28.12;98117.91;4937793;29;2052;-80
2022/07/04 03:32:11;;;;;;;;;;;;;;;21.43;27.90;98111.28;4922580;29;847;-80
2022/07/04 03:34:37;;;;;;;;;;;;;;;21.28;27.95;98117.25;4937993;29;1229;-80
2022/07/04 03:37:03;;;;;;;;;;;;;;;21.32;27.97;98112.31;4938209;29;812;-80
2022/07/04 03:39:28;;;;;;;;;;;;;;;21.30;28.40;98106.31;4919400;29;1109;-80
2022/07/04 03:41:53;;;;;;;;;;;;;;;21.35;27.92;98109.84;4918984;29;1124;-80
2022/07/04 03:44:19;;;;;;;;;;;;;;;21.10;28.50;98105.56;4918959;29;912;-80
2022/07/04 03:46:44;;;;;;;;;;;;;;;21.26;28.60;98102.75;4900096;29;1277;-80
2022/07/04 03:49:10;;;;;;;;;;;;;;;21.25;28.13;98106.81;4862404;29;1907;-80
2022/07/04 03:51:35;;;;;;;;;;;;;;;21.42;28.03;98098.38;4876866;29;947;-79
2022/07/04 03:54:01;;;;;;;;;;;;;;;21.40;28.00;98112.16;4881493;29;898;-80
2022/07/04 03:56:26;;;;;;;;;;;;;;;21.35;28.42;98109.84;4865677;29;1008;-80
2022/07/04 03:58:51;;;;;;;;;;;;;;;21.26;28.36;98114.06;4881159;29;966;-80
2022/07/04 04:01:20;;;;;;;;;;;;;;;21.28;28.69;98117.25;4868014;29;1214;-80
2022/07/04 04:06:29;;;;;;;;;;;;;;;21.03;29.20;98111.34;4862497;29;836;-80
2022/07/04 04:12:29;;;;;;;;;;;;;;;21.30;28.62;98111.19;4862522;29;990;-80
2022/07/04 04:14:54;;;;;;;;;;;;;;;21.38;28.36;98106.13;4862434;29;855;-80
2022/07/04 04:17:20;;;;;;;;;;;;;;;21.40;28.41;98112.16;4874859;29;895;-80
2022/07/04 04:19:45;;;;;;;;;;;;;;;21.44;28.42;98107.19;4880876;29;786;-80
2022/07/04 04:25:45;;;;;;;;;;;;;;;21.33;28.90;98125.25;4881489;29;835;-80
2022/07/04 04:28:10;;;;;;;;;;;;;;;21.45;28.45;98111.63;4881055;29;1990;-80
2022/07/04 04:30:36;;;;;;;;;;;;;;;21.38;28.60;98114.63;4881076;29;880;-80
2022/07/04 04:33:01;;;;;;;;;;;;;;;21.54;28.27;98123.94;4926224;29;851;-80
2022/07/04 04:35:27;;;;;;;;;;;;;;;21.50;28.35;98117.56;4951988;29;1234;-80
2022/07/04 04:37:52;;;;;;;;;;;;;;;21.63;28.27;98114.03;4956223;29;899;-80
2022/07/04 04:40:18;;;;;;;;;;;;;;;21.41;28.46;98114.56;4956374;29;1228;-80
2022/07/04 04:42:43;;;;;;;;;;;;;;;21.41;28.50;98108.09;4961388;28;909;-80
2022/07/04 04:45:09;;;;;;;;;;;;;;;21.53;28.48;98104.56;4995327;28;897;-80
2022/07/04 04:47:34;;;;;;;;;;;;;;;21.33;28.92;98113.13;4995683;28;925;-80
2022/07/04 04:50:00;;;;;;;;;;;;;;;21.28;28.73;98105.91;4946347;28;1915;-80
2022/07/04 04:52:25;;;;;;;;;;;;;;;21.37;28.86;98111.00;4994940;28;1002;-80
2022/07/04 04:54:51;;;;;;;;;;;;;;;21.35;28.81;98109.84;4978690;28;846;-80
2022/07/04 04:57:16;;;;;;;;;;;;;;;21.50;28.50;98106.25;4978885;28;771;-80
2022/07/04 04:59:42;;;;;;;;;;;;;;;21.51;28.46;98107.03;4936913;29;1660;-80
2022/07/04 05:02:07;;;;;;;;;;;;;;;21.33;28.86;98113.91;4941254;29;831;-80
2022/07/04 05:04:33;;;;;;;;;;;;;;;21.42;28.92;98123.84;4940780;29;1690;-80
2022/07/04 05:06:58;;;;;;;;;;;;;;;21.68;28.28;98114.28;4922005;29;909;-80
2022/07/04 05:09:24;;;;;;;;;;;;;;;21.53;28.79;98127.22;4890222;29;1973;-80
2022/07/04 05:11:49;;;;;;;;;;;;;;;21.49;28.95;98132.16;4865321;29;1176;-80
2022/07/04 05:14:15;;;;;;;;;;;;;;;21.54;28.54;98128.78;4865875;29;960;-80
2022/07/04 05:16:40;;;;;;;;;;;;;;;21.43;28.91;98128.25;4865453;29;883;-80
2022/07/04 05:19:06;;;;;;;;;;;;;;;21.19;29.42;98119.91;4865326;29;897;-80
2022/07/04 05:21:31;;;;;;;;;;;;;;;21.27;29.17;98126.97;4865302;29;1034;-80
2022/07/04 05:23:57;;;;;;;;;;;;;;;21.45;28.96;98131.44;4846965;29;906;-80
2022/07/04 05:26:22;;;;;;;;;;;;;;;21.62;28.71;98135.88;4828445;29;887;-80
2022/07/04 05:28:48;;;;;;;;;;;;;;;21.55;28.83;98127.56;4828137;29;1904;-80
2022/07/04 05:31:13;;;;;;;;;;;;;;;21.60;28.68;98132.69;4868640;29;851;-80
2022/07/04 05:33:39;;;;;;;;;;;;;;;21.54;29.02;98129.59;4883431;29;1581;-80
2022/07/04 05:36:04;;;;;;;;;;;;;;;21.54;29.04;98123.13;4884195;29;941;-80
2022/07/04 05:38:30;;;;;;;;;;;;;;;21.58;28.74;98130.31;4864791;29;937;-80
2022/07/04 05:40:55;;;;;;;;;;;;;;;21.44;28.99;98135.50;4864913;29;1003;-80
2022/07/04 05:43:21;;;;;;;;;;;;;;;21.41;29.14;98142.06;4878371;29;857;-80
2022/07/04 05:45:48;;;;;;;;;;;;;;;21.46;29.41;98138.72;4883579;29;984;-80
2022/07/04 05:48:13;;;;;;;;;;;;;;;21.49;28.98;98143.47;4883034;29;1982;-80
2022/07/04 05:50:39;;;;;;;;;;;;;;;21.27;29.47;98143.94;4864658;29;935;-80
2022/07/04 05:53:04;;;;;;;;;;;;;;;21.47;29.12;98145.97;4864818;29;954;-80
2022/07/04 05:55:30;;;;;;;;;;;;;;;21.41;29.28;98157.03;4892326;29;860;-80
2022/07/04 05:57:55;;;;;;;;;;;;;;;21.63;28.94;98165.00;4931740;29;946;-80
2022/07/04 06:00:21;;;;;;;;;;;;;;;21.81;28.72;98160.50;4920845;29;790;-80
2022/07/04 06:02:46;;;;;;;;;;;;;;;21.59;29.02;98162.25;4901751;29;1726;-80
2022/07/04 06:05:12;;;;;;;;;;;;;;;21.56;28.97;98163.13;4864232;29;961;-80
2022/07/04 06:07:37;;;;;;;;;;;;;;;21.46;29.34;98162.16;4864757;29;799;-80
2022/07/04 06:10:03;;;;;;;;;;;;;;;21.31;29.48;98173.00;4878523;29;1989;-80
2022/07/04 06:12:29;;;;;;;;;;;;;;;21.39;29.68;98167.16;4881880;29;1248;-80
2022/07/04 06:14:54;;;;;;;;;;;;;;;21.47;29.66;98168.59;4864394;29;996;-80
2022/07/04 06:17:21;;;;;;;;;;;;;;;21.33;30.03;98159.19;4845411;29;1057;-72
2022/07/04 06:19:46;;;;;;;;;;;;;;;21.83;32.03;98158.00;4831549;29;1781;-82
2022/07/04 06:22:12;;;;;;;;;;;;;;;21.75;31.29;98162.25;4864598;29;1099;-82
2022/07/04 06:24:38;;;;;;;;;;;;;;;21.61;31.14;98151.28;4864297;29;967;-81
2022/07/04 06:27:03;;;;;;;;;;;;;;;21.56;31.04;98154.66;4878172;29;924;-81
2022/07/04 06:29:29;;;;;;;;;;;;;;;21.62;30.82;98146.41;4867423;29;1984;-82
2022/07/04 06:31:54;;;;;;;;;;;;;;;21.61;30.61;98145.63;4864131;29;986;-82
2022/07/04 06:37:03;;;;;;;;;;;;;;;21.51;30.87;98141.03;4838197;29;1098;-81
2022/07/04 06:39:29;;;;;;;;;;;;;;;21.69;30.39;98141.38;4827344;29;1073;-81
2022/07/04 06:41:54;;;;;;;;;;;;;;;21.78;30.02;98149.25;4823591;29;1046;-82
2022/07/04 06:44:20;;;;;;;;;;;;;;;21.85;29.84;98154.72;4793822;29;867;-81
2022/07/04 06:46:46;;;;;;;;;;;;;;;21.87;29.68;98151.47;4809053;29;941;-81
2022/07/04 06:49:11;;;;;;;;;;;;;;;21.59;30.13;98153.75;4808948;29;1982;-83
2022/07/04 06:51:37;;;;;;;;;;;;;;;21.56;30.16;98155.44;4809083;29;821;-81
2022/07/04 06:54:02;;;;;;;;;;;;;;;21.70;29.78;98148.63;4847174;29;860;-81
2022/07/04 06:56:28;;;;;;;;;;;;;;;21.54;30.04;98157.09;4882258;29;889;-81
2022/07/04 06:58:53;;;;;;;;;;;;;;;21.60;30.37;98163.84;4882231;29;852;-81
2022/07/04 07:01:19;;;;;;;;;;;;;;;21.59;30.02;98148.09;4863295;29;910;-81
2022/07/04 07:03:44;;;;;;;;;;;;;;;21.39;30.56;98147.34;4863439;29;990;-81
2022/07/04 07:06:10;;;;;;;;;;;;;;;21.66;30.08;98153.59;4844948;29;999;-81
2022/07/04 07:08:35;;;;;;;;;;;;;;;21.71;29.74;98155.06;4858390;29;1911;-81
2022/07/04 07:11:13;;;;;;;;;;;;;;;21.68;30.02;98156.78;4886980;29;1140;-81
2022/07/04 07:13:39;;;;;;;;;;;;;;;21.46;30.25;98148.00;4900750;29;946;-81
2022/07/04 07:16:05;;;;;;;;;;;;;;;21.55;30.43;98150.19;4863209;29;887;-81
2022/07/04 07:18:30;;;;;;;;;;;;;;;21.36;30.59;98162.41;4863414;29;976;-81
2022/07/04 07:20:55;;;;;;;;;;;;;;;21.61;30.15;98156.94;4863167;29;964;-81
2022/07/04 07:23:21;;;;;;;;;;;;;;;21.96;29.53;98162.94;4877769;29;875;-81
2022/07/04 07:25:46;;;;;;;;;;;;;;;21.77;30.02;98162.63;4848274;29;939;-81
2022/07/04 07:28:13;;;;;;;;;;;;;;;21.71;30.22;98157.91;4844513;29;1915;-81
2022/07/04 07:30:38;;;;;;;;;;;;;;;21.64;30.14;98156.06;4844952;29;1020;-81
2022/07/04 07:33:04;;;;;;;;;;;;;;;21.76;30.04;98166.69;4844523;29;944;-81
2022/07/04 07:35:29;;;;;;;;;;;;;;;21.77;29.86;98165.44;4844509;29;1031;-81
2022/07/04 07:37:55;;;;;;;;;;;;;;;21.69;30.32;98151.91;4887551;29;924;-81
2022/07/04 07:40:21;;;;;;;;;;;;;;;21.83;29.73;98146.69;4935014;29;1357;-81
2022/07/04 07:42:46;;;;;;;;;;;;;;;21.71;30.28;98141.75;4925030;29;1068;-81
2022/07/04 07:45:17;;;;;;;;;;;;;;;21.67;30.18;98146.69;5094744;27;1375;-81
2022/07/04 07:47:43;;;;;;;;;;;;;;;21.73;30.14;98142.09;5112924;28;944;-81
2022/07/04 07:50:09;;;;;;;;;;;;;;;21.72;30.24;98151.81;5092248;28;1283;-80
2022/07/04 07:52:34;;;;;;;;;;;;;;;21.74;30.36;98160.66;5042012;28;884;-81
2022/07/04 07:55:00;;;;;;;;;;;;;;;21.55;30.54;98153.03;5092095;28;822;-80
2022/07/04 07:57:25;;;;;;;;;;;;;;;21.64;30.54;98158.88;5075110;28;1230;-81
2022/07/04 07:59:51;;;;;;;;;;;;;;;21.99;29.75;98170.56;5091719;28;1258;-81
2022/07/04 08:02:16;;;;;;;;;;;;;;;22.05;29.79;98163.13;5091684;28;1240;-81
2022/07/04 08:04:42;;;;;;;;;;;;;;;21.97;29.61;98158.91;5091607;28;1906;-81
2022/07/04 08:07:08;;;;;;;;;;;;;;;21.73;30.08;98153.41;5071462;28;973;-81
2022/07/04 08:09:33;;;;;;;;;;;;;;;21.85;29.89;98149.84;5051795;28;978;-80
2022/07/04 08:11:59;;;;;;;;;;;;;;;21.64;30.54;98149.59;4996983;28;1718;-80
2022/07/04 08:14:25;;;;;;;;;;;;;;;21.52;30.36;98149.06;4992303;28;905;-80
2022/07/04 08:16:50;;;;;;;;;;;;;;;21.50;30.58;98156.38;4992138;28;1317;-80
2022/07/04 08:19:16;;;;;;;;;;;;;;;21.69;30.15;98155.53;4992210;28;955;-80
2022/07/04 08:21:41;;;;;;;;;;;;;;;21.69;30.16;98161.19;4977913;28;929;-80
2022/07/04 08:24:07;;;;;;;;;;;;;;;21.63;30.30;98159.34;4973032;28;1966;-81
2022/07/04 08:26:32;;;;;;;;;;;;;;;21.83;30.35;98160.84;4972684;28;858;-80
2022/07/04 08:28:59;;;;;;;;;;;;;;;21.76;30.07;98169.53;4972669;28;996;-81
2022/07/04 08:31:25;;;;;;;;;;;;;;;21.70;30.09;98171.28;4973069;28;1040;-80
2022/07/04 08:33:51;;;;;;;;;;;;;;;21.70;30.53;98171.28;4991601;28;915;-80
2022/07/04 08:36:16;;;;;;;;;;;;;;;22.03;29.67;98171.28;4991868;28;838;-80
2022/07/04 08:38:41;;;;;;;;;;;;;;;21.82;30.20;98167.75;5021159;28;1298;-80
2022/07/04 08:41:07;;;;;;;;;;;;;;;21.73;30.02;98164.75;5031080;28;891;-80
2022/07/04 08:43:33;;;;;;;;;;;;;;;21.67;30.47;98166.50;5060433;28;1984;-80
2022/07/04 08:45:59;;;;;;;;;;;;;;;21.67;30.46;98172.16;5091218;28;961;-81
2022/07/04 08:48:27;;;;;;;;;;;;;;;21.72;30.19;98168.03;5085596;28;1311;-80
2022/07/04 08:50:57;;;;;;;;;;;;;;;21.69;30.25;98180.22;5030700;28;863;-80
2022/07/04 08:53:24;;;;;;;;;;;;;;;21.53;30.83;98164.00;5031033;28;1000;-80
2022/07/04 08:58:33;;;;;;;;;;;;;;;21.79;30.15;98157.28;5017585;28;948;-80
2022/07/04 09:00:59;;;;;;;;;;;;;;;21.83;30.03;98157.22;5017686;28;849;-80
2022/07/04 09:03:25;;;;;;;;;;;;;;;21.82;30.12;98150.75;5017547;28;1909;-81
2022/07/04 09:05:51;;;;;;;;;;;;;;;21.73;30.17;98146.94;4999444;28;958;-80
2022/07/04 09:08:16;;;;;;;;;;;;;;;21.75;30.42;98153.75;4998158;28;1114;-80
2022/07/04 09:10:42;;;;;;;;;;;;;;;21.83;30.00;98148.72;4998044;28;893;-80
2022/07/04 09:13:07;;;;;;;;;;;;;;;21.67;30.24;98143.84;4997992;28;954;-80
2022/07/04 09:15:33;;;;;;;;;;;;;;;21.64;30.61;98141.91;4997974;28;1041;-80
2022/07/04 09:17:59;;;;;;;;;;;;;;;21.73;30.39;98147.75;4997697;28;946;-80
2022/07/04 09:20:24;;;;;;;;;;;;;;;21.72;30.32;98146.16;4997315;28;1027;-80
2022/07/04 09:22:50;;;;;;;;;;;;;;;21.74;30.32;98142.88;4994488;28;962;-80
2022/07/04 09:25:16;;;;;;;;;;;;;;;21.63;30.72;98131.81;4997481;28;1977;-80
2022/07/04 09:27:47;;;;;;;;;;;;;;;21.76;30.57;98138.38;5018747;28;1503;-81
2022/07/04 09:30:12;;;;;;;;;;;;;;;21.89;30.16;98148.97;5056706;28;915;-80
2022/07/04 09:32:38;;;;;;;;;;;;;;;22.00;29.91;98144.63;5056717;28;1327;-80
2022/07/04 09:35:04;;;;;;;;;;;;;;;21.97;29.84;98144.75;5039967;28;1233;-80
2022/07/04 09:37:36;;;;;;;;;;;;;;;21.81;30.37;98143.50;5017106;28;932;-80
2022/07/04 09:40:02;;;;;;;;;;;;;;;21.76;30.43;98146.03;5000860;28;968;-81
2022/07/04 09:42:34;;;;;;;;;;;;;;;21.93;30.23;98135.53;5016723;28;891;-80
2022/07/04 09:45:03;;;;;;;;;;;;;;;21.77;30.16;98142.78;4977657;28;1979;-80
2022/07/04 09:47:29;;;;;;;;;;;;;;;21.82;30.27;98145.09;4977368;28;1033;-81
2022/07/04 09:50:20;;;;;;;;;;;;;;;21.63;30.42;98148.81;4977488;28;844;-81
2022/07/04 09:52:52;;;;;;;;;;;;;;;21.67;30.78;98135.34;4938794;29;1022;-80
2022/07/04 09:55:25;;;;;;;;;;;;;;;21.71;30.25;98138.91;4957823;29;948;-80
2022/07/04 09:57:51;;;;;;;;;;;;;;;21.90;30.26;98150.56;4957832;29;1125;-80
2022/07/04 10:00:24;;;;;;;;;;;;;;;21.94;30.19;98151.28;4968212;28;1021;-80
2022/07/04 10:02:49;;;;;;;;;;;;;;;21.90;30.03;98144.91;4977333;28;1029;-81
2022/07/04 10:05:27;;;;;;;;;;;;;;;21.93;29.97;98138.34;4976917;28;1902;-81
2022/07/04 10:07:53;;;;;;;;;;;;;;;21.92;30.27;98150.94;4992310;28;1530;-80
2022/07/04 10:10:25;;;;;;;;;;;;;;;21.88;30.12;98148.19;4976881;28;1322;-81
2022/07/04 10:12:50;;;;;;;;;;;;;;;22.01;30.01;98145.41;4977107;28;1360;-81
2022/07/04 10:15:16;;;;;;;;;;;;;;;21.90;30.24;98144.91;4989639;28;1071;-81
2022/07/04 10:17:42;;;;;;;;;;;;;;;21.93;30.07;98149.69;5000249;28;834;-81
2022/07/04 10:20:08;;;;;;;;;;;;;;;21.89;30.08;98140.47;5016273;28;825;-81
2022/07/04 10:22:34;;;;;;;;;;;;;;;21.73;30.55;98141.28;5016069;28;881;-80
2022/07/04 10:24:59;;;;;;;;;;;;;;;21.75;30.78;98142.41;4996692;28;1910;-81
2022/07/04 10:27:25;;;;;;;;;;;;;;;21.77;30.46;98142.78;4959765;28;1229;-81
2022/07/04 10:29:50;;;;;;;;;;;;;;;21.75;30.69;98145.25;4946981;29;1001;-81
2022/07/04 10:32:15;;;;;;;;;;;;;;;21.71;30.56;98150.22;4938400;29;834;-81
2022/07/04 10:34:41;;;;;;;;;;;;;;;21.70;30.75;98151.44;4938159;29;886;-81
2022/07/04 10:37:06;;;;;;;;;;;;;;;21.83;30.26;98149.50;4921815;29;1078;-81
2022/07/04 10:39:32;;;;;;;;;;;;;;;21.93;30.07;98150.50;4938525;29;1260;-80
2022/07/04 10:41:58;;;;;;;;;;;;;;;21.73;30.63;98146.94;4938053;29;901;-80
2022/07/04 10:44:25;;;;;;;;;;;;;;;21.91;30.27;98152.16;4918634;29;1985;-81
2022/07/04 10:46:51;;;;;;;;;;;;;;;21.78;30.57;98149.25;4903716;29;870;-81
2022/07/04 10:49:24;;;;;;;;;;;;;;;21.71;30.57;98143.75;4862751;29;954;-80
2022/07/04 10:51:50;;;;;;;;;;;;;;;21.84;30.45;98145.44;4862668;29;958;-80
2022/07/04 10:54:16;;;;;;;;;;;;;;;21.64;30.80;98144.72;4862742;29;885;-81
2022/07/04 10:56:54;;;;;;;;;;;;;;;21.70;30.84;98145.78;4910951;29;929;-81
2022/07/04 10:59:28;;;;;;;;;;;;;;;21.58;30.85;98135.16;4885847;29;906;-80
2022/07/04 11:02:06;;;;;;;;;;;;;;;21.72;30.73;98134.81;4932090;29;1273;-80
2022/07/04 11:04:44;;;;;;;;;;;;;;;21.65;30.91;98140.66;4918679;29;2011;-81
2022/07/04 11:07:10;;;;;;;;;;;;;;;21.89;30.25;98123.47;4918559;29;938;-81
2022/07/04 11:09:35;;;;;;;;;;;;;;;21.88;30.49;98124.72;4935525;29;911;-80
2022/07/04 11:12:05;;;;;;;;;;;;;;;21.95;30.08;98124.53;4934633;29;911;-81
2022/07/04 11:14:34;;;;;;;;;;;;;;;21.81;30.53;98132.19;4926555;28;902;-81
2022/07/04 11:16:59;;;;;;;;;;;;;;;21.84;30.53;98122.78;4976439;28;985;-80
2022/07/04 11:19:25;;;;;;;;;;;;;;;21.91;30.36;98124.63;4978710;28;886;-81
2022/07/04 11:21:50;;;;;;;;;;;;;;;21.90;30.34;98123.03;4995746;28;1026;-81
2022/07/04 11:24:15;;;;;;;;;;;;;;;21.90;30.21;98122.25;4995353;28;1911;-80
2022/07/04 11:26:41;;;;;;;;;;;;;;;21.77;30.46;98120.13;5036182;28;969;-81
2022/07/04 11:29:06;;;;;;;;;;;;;;;21.78;30.56;98109.59;4998374;28;948;-81
2022/07/04 11:31:35;;;;;;;;;;;;;;;21.75;30.38;98111.25;4975787;28;946;-81
2022/07/04 11:34:01;;;;;;;;;;;;;;;21.92;30.35;98106.41;4975786;28;968;-81
2022/07/04 11:36:26;;;;;;;;;;;;;;;21.91;30.10;98106.81;4975952;28;917;-81
2022/07/04 11:38:54;;;;;;;;;;;;;;;21.69;30.52;98112.25;4975895;28;861;-81
2022/07/04 11:47:08;;;;;;;;;;;;;;;21.67;30.51;98109.88;4976068;28;1092;-81
2022/07/04 11:49:34;;;;;;;;;;;;;;;21.94;30.26;98117.28;4975564;28;871;-81
2022/07/04 11:51:59;;;;;;;;;;;;;;;21.78;30.57;98120.94;4975458;28;870;-80
2022/07/04 11:54:24;;;;;;;;;;;;;;;22.01;29.77;98111.41;4975794;28;1334;-81
2022/07/04 11:56:51;;;;;;;;;;;;;;;22.27;29.79;98107.50;4972679;28;1219;-80
2022/07/04 11:59:16;;;;;;;;;;;;;;;21.72;30.38;98106.50;5008317;28;1384;-81
2022/07/04 12:01:42;;;;;;;;;;;;;;;21.84;30.31;98111.44;4991668;28;958;-80
2022/07/04 12:04:17;;;;;;;;;;;;;;;22.06;29.84;98102.38;4994486;28;1902;-80
2022/07/04 12:06:43;;;;;;;;;;;;;;;22.12;29.63;98111.16;4994635;28;882;-81
2022/07/04 12:09:09;;;;;;;;;;;;;;;21.91;29.89;98098.31;4994501;28;951;-80
2022/07/04 12:11:50;;;;;;;;;;;;;;;21.90;30.11;98105.25;4971944;28;885;-80
2022/07/04 12:14:16;;;;;;;;;;;;;;;21.85;30.18;98098.88;4951626;29;960;-81
2022/07/04 12:16:41;;;;;;;;;;;;;;;21.77;30.49;98102.34;4936846;29;854;-80
2022/07/04 12:19:10;;;;;;;;;;;;;;;21.89;30.29;98092.31;4937095;29;886;-80
2022/07/04 12:21:35;;;;;;;;;;;;;;;21.69;30.39;98107.38;4936799;29;892;-80
2022/07/04 12:24:03;;;;;;;;;;;;;;;21.98;29.98;98106.66;4936624;29;1976;-81
2022/07/04 12:26:30;;;;;;;;;;;;;;;21.85;30.13;98096.03;4936824;29;872;-81
2022/07/04 12:28:56;;;;;;;;;;;;;;;21.85;30.51;98090.38;4956157;29;1651;-81
2022/07/04 12:31:37;;;;;;;;;;;;;;;21.89;30.10;98089.50;4938706;29;956;-81
2022/07/04 12:34:02;;;;;;;;;;;;;;;21.79;30.42;98097.03;4922167;29;1110;-81
2022/07/04 12:36:28;;;;;;;;;;;;;;;21.92;29.94;98097.91;4978534;28;958;-81
2022/07/04 12:38:55;;;;;;;;;;;;;;;21.92;30.05;98097.13;4940216;29;878;-80
2022/07/04 12:41:28;;;;;;;;;;;;;;;21.95;30.21;98096.22;4921238;29;1564;-81
2022/07/04 12:43:54;;;;;;;;;;;;;;;21.91;30.12;98101.16;4939925;29;1915;-81
2022/07/04 12:46:26;;;;;;;;;;;;;;;22.04;29.86;98091.50;4940051;29;1196;-81
2022/07/04 12:48:52;;;;;;;;;;;;;;;22.03;29.75;98100.44;4920832;29;1642;-81
2022/07/04 12:51:18;;;;;;;;;;;;;;;22.00;29.90;98098.50;4920888;29;1217;-81
2022/07/04 12:53:44;;;;;;;;;;;;;;;21.91;30.08;98101.16;4920896;29;1498;-80
2022/07/04 12:56:10;;;;;;;;;;;;;;;21.93;30.29;98104.38;4921187;29;1580;-80
2022/07/04 12:58:35;;;;;;;;;;;;;;;22.11;29.61;98099.03;4902105;29;907;-81
2022/07/04 13:01:01;;;;;;;;;;;;;;;22.23;29.63;98109.66;4902029;29;1569;-81
2022/07/04 13:03:26;;;;;;;;;;;;;;;22.05;30.09;98103.63;4937649;29;2081;-81
2022/07/04 13:05:52;;;;;;;;;;;;;;;21.92;30.08;98102.78;4950153;29;1525;-81
2022/07/04 13:08:17;;;;;;;;;;;;;;;21.80;30.40;98093.75;4975361;28;1254;-81
2022/07/04 13:10:43;;;;;;;;;;;;;;;21.85;30.20;98098.88;5011005;28;1344;-81
2022/07/04 13:13:08;;;;;;;;;;;;;;;22.05;29.81;98100.78;5013066;28;1558;-81
2022/07/04 13:15:34;;;;;;;;;;;;;;;22.00;29.75;98099.28;5016905;28;1672;-81
2022/07/04 13:17:59;;;;;;;;;;;;;;;21.96;29.94;98097.78;5017216;28;1568;-80
2022/07/04 13:20:25;;;;;;;;;;;;;;;22.06;29.86;98108.03;5017310;28;936;-81
2022/07/04 13:22:50;;;;;;;;;;;;;;;21.95;29.99;98096.22;5022554;28;1002;-81
2022/07/04 13:25:16;;;;;;;;;;;;;;;21.91;30.01;98081.34;5057408;28;1894;-81
2022/07/04 13:27:41;;;;;;;;;;;;;;;21.92;30.36;98088.63;5040681;28;756;-81
2022/07/04 13:30:07;;;;;;;;;;;;;;;22.07;29.81;98092.63;5057179;28;958;-81
2022/07/04 13:32:34;;;;;;;;;;;;;;;22.07;30.01;98095.47;5040515;28;861;-81
2022/07/04 13:34:59;;;;;;;;;;;;;;;21.91;30.35;98095.50;5058716;28;923;-81